createdAt,value
2018-06-16T00:00:33.678Z,94.13
2018-06-16T00:01:41.703Z,93.84
2018-06-16T00:02:49.869Z,93.27
2018-06-16T00:03:57.814Z,94.03
2018-06-16T00:05:05.884Z,93.37
2018-06-16T00:06:13.964Z,93.84
2018-06-16T00:07:22.000Z,93.93
2018-06-16T00:08:30.082Z,93.74
2018-06-16T00:09:38.153Z,94.13
2018-06-16T00:10:46.265Z,94.13
2018-06-16T00:11:54.361Z,93.84
2018-06-16T00:13:02.341Z,94.13
2018-06-16T00:14:10.403Z,93.37
2018-06-16T00:15:18.475Z,94.22
2018-06-16T00:16:26.517Z,93.74
2018-06-16T00:17:34.707Z,94.03
2018-06-16T00:18:42.648Z,94.13
2018-06-16T00:19:50.719Z,94.22
2018-06-16T00:20:58.791Z,93.84
2018-06-16T00:22:06.837Z,93.93
2018-06-16T00:23:14.906Z,93.65
2018-06-16T00:24:23.016Z,94.22
2018-06-16T00:25:31.035Z,94.22
2018-06-16T00:26:39.097Z,93.37
2018-06-16T00:27:47.159Z,94.13
2018-06-16T00:28:55.217Z,94.13
2018-06-16T00:30:03.277Z,93.37
2018-06-16T00:31:11.362Z,94.13
2018-06-16T00:32:19.377Z,94.13
2018-06-16T00:33:27.491Z,94.13
2018-06-16T00:34:35.548Z,94.03
2018-06-16T00:35:43.586Z,94.03
2018-06-16T00:36:51.656Z,94.13
2018-06-16T00:37:59.721Z,93.51
2018-06-16T00:39:07.801Z,93.84
2018-06-16T00:40:15.868Z,94.03
2018-06-16T00:41:23.913Z,93.93
2018-06-16T00:42:31.969Z,93.93
2018-06-16T00:43:40.038Z,93.79
2018-06-16T00:44:48.315Z,93.89
2018-06-16T00:45:56.474Z,94.13
2018-06-16T00:47:04.452Z,93.98
2018-06-16T00:48:12.507Z,93.98
2018-06-16T00:49:20.574Z,94.17
2018-06-16T00:50:28.618Z,93.65
2018-06-16T00:51:36.682Z,93.98
2018-06-16T00:52:44.762Z,93.84
2018-06-16T00:53:52.820Z,93.70
2018-06-16T00:55:00.938Z,94.08
2018-06-16T00:56:08.946Z,94.37
2018-06-16T00:57:17.059Z,94.17
2018-06-16T00:58:25.066Z,93.98
2018-06-16T00:59:33.137Z,94.56
2018-06-16T01:00:41.202Z,94.27
2018-06-16T01:01:49.338Z,94.56
2018-06-16T01:02:57.329Z,94.46
2018-06-16T01:04:05.384Z,93.98
2018-06-16T01:05:13.450Z,93.98
2018-06-16T01:06:21.515Z,93.79
2018-06-16T01:07:29.550Z,94.03
2018-06-16T01:08:37.644Z,93.55
2018-06-16T01:09:45.713Z,94.03
2018-06-16T01:10:53.787Z,93.93
2018-06-16T01:12:01.827Z,93.93
2018-06-16T01:13:10.506Z,93.93
2018-06-16T01:14:17.967Z,94.03
2018-06-16T01:15:26.014Z,93.93
2018-06-16T01:16:34.077Z,93.74
2018-06-16T01:17:42.154Z,94.03
2018-06-16T01:18:50.214Z,93.93
2018-06-16T01:19:58.257Z,94.13
2018-06-16T01:21:06.339Z,94.22
2018-06-16T01:22:14.403Z,93.93
2018-06-16T01:23:22.463Z,94.13
2018-06-16T01:24:32.019Z,94.22
2018-06-16T01:25:38.579Z,94.03
2018-06-16T01:26:46.657Z,94.13
2018-06-16T01:27:54.730Z,94.13
2018-06-16T01:29:02.785Z,93.84
2018-06-16T01:30:10.858Z,94.13
2018-06-16T01:31:18.903Z,94.13
2018-06-16T01:32:26.961Z,94.03
2018-06-16T01:33:35.035Z,93.84
2018-06-16T01:34:43.096Z,94.22
2018-06-16T01:35:51.257Z,94.22
2018-06-16T01:36:59.227Z,93.93
2018-06-16T01:38:07.283Z,94.13
2018-06-16T01:39:15.344Z,93.84
2018-06-16T01:40:23.416Z,94.03
2018-06-16T01:41:31.486Z,94.03
2018-06-16T01:42:39.577Z,94.22
2018-06-16T01:43:47.612Z,94.03
2018-06-16T01:44:55.685Z,94.13
2018-06-16T01:46:03.755Z,93.93
2018-06-16T01:47:11.812Z,93.93
2018-06-16T01:48:20.099Z,94.03
2018-06-16T01:49:27.944Z,94.13
2018-06-16T01:50:36.011Z,94.13
2018-06-16T01:51:44.068Z,94.03
2018-06-16T01:52:52.177Z,93.84
2018-06-16T01:54:00.214Z,94.32
2018-06-16T01:55:08.280Z,94.22
2018-06-16T01:56:16.337Z,94.51
2018-06-16T01:57:24.427Z,94.51
2018-06-16T01:58:32.465Z,94.46
2018-06-16T01:59:40.524Z,94.41
2018-06-16T02:00:48.602Z,94.51
2018-06-16T02:01:56.670Z,94.41
2018-06-16T02:03:04.727Z,94.32
2018-06-16T02:04:12.792Z,93.84
2018-06-16T02:05:20.865Z,94.13
2018-06-16T02:06:28.935Z,94.03
2018-06-16T02:07:36.989Z,94.03
2018-06-16T02:08:45.046Z,94.22
2018-06-16T02:09:53.117Z,94.13
2018-06-16T02:11:01.182Z,94.22
2018-06-16T02:12:09.217Z,93.93
2018-06-16T02:13:17.317Z,94.03
2018-06-16T02:14:25.358Z,94.13
2018-06-16T02:15:33.429Z,94.22
2018-06-16T02:16:41.506Z,93.74
2018-06-16T02:17:49.544Z,94.13
2018-06-16T02:18:57.630Z,93.84
2018-06-16T02:20:05.690Z,94.13
2018-06-16T02:21:13.767Z,94.03
2018-06-16T02:22:21.858Z,93.93
2018-06-16T02:23:29.875Z,94.32
2018-06-16T02:24:37.969Z,93.93
2018-06-16T02:25:46.028Z,94.22
2018-06-16T02:26:54.100Z,93.84
2018-06-16T02:28:02.167Z,93.93
2018-06-16T02:29:10.221Z,93.93
2018-06-16T02:30:18.310Z,93.93
2018-06-16T02:31:26.349Z,93.89
2018-06-16T02:32:34.417Z,94.08
2018-06-16T02:33:42.493Z,93.70
2018-06-16T02:34:50.557Z,94.46
2018-06-16T02:35:58.611Z,94.37
2018-06-16T02:37:06.679Z,94.46
2018-06-16T02:38:14.971Z,94.27
2018-06-16T02:39:22.811Z,94.46
2018-06-16T02:40:30.864Z,94.17
2018-06-16T02:41:38.912Z,94.37
2018-06-16T02:42:47.005Z,94.46
2018-06-16T02:43:55.069Z,94.17
2018-06-16T02:45:03.138Z,94.17
2018-06-16T02:46:11.190Z,94.08
2018-06-16T02:47:19.242Z,94.56
2018-06-16T02:48:27.318Z,94.08
2018-06-16T02:49:35.373Z,94.17
2018-06-16T02:50:43.459Z,94.08
2018-06-16T02:51:51.511Z,94.56
2018-06-16T02:52:59.560Z,94.03
2018-06-16T02:54:07.694Z,94.03
2018-06-16T02:55:15.711Z,94.03
2018-06-16T02:56:23.779Z,94.56
2018-06-16T02:57:31.844Z,94.22
2018-06-16T02:58:39.913Z,94.13
2018-06-16T02:59:47.978Z,94.51
2018-06-16T03:00:56.041Z,94.42
2018-06-16T03:02:04.099Z,93.94
2018-06-16T03:03:12.223Z,94.22
2018-06-16T03:04:20.248Z,94.32
2018-06-16T03:05:28.309Z,94.42
2018-06-16T03:06:36.357Z,94.03
2018-06-16T03:07:44.437Z,94.42
2018-06-16T03:08:52.696Z,94.03
2018-06-16T03:10:00.757Z,94.42
2018-06-16T03:11:08.825Z,94.03
2018-06-16T03:12:16.907Z,94.42
2018-06-16T03:13:24.971Z,94.03
2018-06-16T03:14:33.034Z,94.42
2018-06-16T03:15:41.060Z,94.03
2018-06-16T03:16:49.116Z,94.22
2018-06-16T03:17:57.219Z,94.13
2018-06-16T03:19:05.270Z,94.13
2018-06-16T03:20:13.348Z,94.22
2018-06-16T03:21:21.412Z,94.42
2018-06-16T03:22:29.450Z,94.13
2018-06-16T03:23:37.649Z,94.51
2018-06-16T03:24:45.608Z,94.51
2018-06-16T03:25:53.682Z,94.46
2018-06-16T03:27:01.731Z,94.27
2018-06-16T03:28:09.764Z,94.37
2018-06-16T03:29:17.866Z,94.17
2018-06-16T03:30:26.180Z,94.37
2018-06-16T03:31:34.000Z,94.27
2018-06-16T03:32:42.064Z,94.37
2018-06-16T03:33:50.141Z,94.46
2018-06-16T03:34:58.425Z,93.70
2018-06-16T03:36:06.263Z,93.70
2018-06-16T03:37:14.319Z,94.37
2018-06-16T03:38:22.389Z,94.56
2018-06-16T03:39:30.557Z,93.60
2018-06-16T03:40:38.508Z,94.03
2018-06-16T03:41:46.575Z,93.93
2018-06-16T03:42:54.649Z,93.65
2018-06-16T03:44:02.707Z,93.84
2018-06-16T03:45:10.766Z,93.84
2018-06-16T03:46:18.851Z,93.55
2018-06-16T03:56:21.595Z,93.84
2018-06-16T03:57:28.967Z,93.93
2018-06-16T03:58:37.043Z,93.74
2018-06-16T03:59:45.110Z,93.55
2018-06-16T04:00:53.623Z,93.65
2018-06-16T04:02:01.791Z,93.74
2018-06-16T04:03:09.643Z,93.93
2018-06-16T04:04:17.362Z,93.74
2018-06-16T04:05:25.447Z,93.93
2018-06-16T04:06:33.500Z,93.74
2018-06-16T04:07:41.559Z,94.03
2018-06-16T04:08:49.582Z,93.93
2018-06-16T04:09:57.755Z,94.13
2018-06-16T04:11:05.750Z,94.13
2018-06-16T04:12:13.820Z,94.03
2018-06-16T04:13:21.872Z,93.93
2018-06-16T04:14:29.929Z,93.93
2018-06-16T04:15:37.996Z,93.98
2018-06-16T04:16:46.080Z,94.17
2018-06-16T04:17:54.124Z,93.88
2018-06-16T04:19:02.215Z,93.98
2018-06-16T04:20:10.252Z,94.17
2018-06-16T04:21:18.312Z,93.88
2018-06-16T04:22:26.404Z,94.17
2018-06-16T04:23:34.466Z,93.98
2018-06-16T04:24:42.519Z,93.51
2018-06-16T04:25:50.899Z,94.08
2018-06-16T04:26:58.727Z,94.27
2018-06-16T04:28:06.772Z,94.08
2018-06-16T04:29:14.774Z,93.12
2018-06-16T04:30:22.834Z,93.41
2018-06-16T04:31:31.035Z,93.22
2018-06-16T04:32:38.944Z,93.03
2018-06-16T04:33:47.058Z,93.32
2018-06-16T04:34:55.526Z,93.32
2018-06-16T04:36:03.170Z,93.32
2018-06-16T04:37:11.230Z,93.32
2018-06-16T04:38:19.268Z,93.51
2018-06-16T04:39:27.350Z,93.41
2018-06-16T04:40:35.898Z,93.41
2018-06-16T04:41:43.518Z,93.32
2018-06-16T04:42:51.551Z,93.41
2018-06-16T04:43:59.946Z,93.12
2018-06-16T04:45:07.889Z,93.22
2018-06-16T04:46:15.928Z,94.17
2018-06-16T04:47:26.788Z,93.32
2018-06-16T04:48:34.737Z,93.88
2018-06-16T04:49:42.741Z,93.55
2018-06-16T04:50:50.818Z,93.08
2018-06-16T04:51:58.873Z,93.08
2018-06-16T04:53:06.939Z,93.17
2018-06-16T04:54:15.103Z,93.08
2018-06-16T04:55:23.148Z,93.17
2018-06-16T04:56:31.138Z,93.17
2018-06-16T04:57:39.450Z,93.55
2018-06-16T04:58:47.253Z,93.08
2018-06-16T04:59:55.330Z,93.08
2018-06-16T05:01:03.399Z,93.08
2018-06-16T05:02:11.462Z,93.08
2018-06-16T05:03:19.498Z,93.17
2018-06-16T05:04:27.901Z,93.12
2018-06-16T05:05:35.657Z,93.17
2018-06-16T05:06:43.713Z,93.22
2018-06-16T05:07:53.807Z,92.83
2018-06-16T05:09:00.453Z,91.74
2018-06-16T05:10:08.517Z,91.88
2018-06-16T05:11:16.576Z,91.21
2018-06-16T05:12:24.954Z,91.88
2018-06-16T05:13:32.718Z,91.21
2018-06-16T05:14:41.436Z,90.64
2018-06-16T05:15:48.835Z,90.54
2018-06-16T05:16:56.963Z,90.92
2018-06-16T05:18:05.044Z,89.20
2018-06-16T05:19:13.047Z,89.01
2018-06-16T05:20:21.131Z,88.44
2018-06-16T05:21:29.222Z,88.15
2018-06-16T05:22:37.252Z,88.15
2018-06-16T05:23:45.322Z,88.29
2018-06-16T05:24:53.369Z,87.91
2018-06-16T05:27:14.562Z,87.24
2018-06-16T05:28:22.613Z,87.62
2018-06-16T05:29:30.677Z,88.20
2018-06-16T05:32:55.502Z,87.00
2018-06-16T05:34:02.932Z,86.52
2018-06-16T05:35:10.997Z,86.43
2018-06-16T05:36:21.457Z,86.61
2018-06-16T05:37:28.191Z,87.38
2018-06-16T05:38:38.437Z,86.52
2018-06-16T05:39:44.266Z,86.14
2018-06-16T05:40:52.556Z,86.61
2018-06-16T05:42:00.404Z,86.33
2018-06-16T05:43:08.438Z,85.57
2018-06-16T05:44:16.529Z,86.43
2018-06-16T05:45:24.599Z,85.85
2018-06-16T05:46:32.662Z,84.52
2018-06-16T05:47:40.775Z,83.98
2018-06-16T05:48:48.777Z,83.50
2018-06-16T05:49:56.872Z,84.75
2018-06-16T05:51:04.927Z,84.08
2018-06-16T05:52:13.241Z,83.89
2018-06-16T05:53:21.063Z,84.08
2018-06-16T05:54:29.127Z,85.71
2018-06-16T05:55:37.181Z,85.32
2018-06-16T05:56:45.259Z,85.41
2018-06-16T05:57:53.325Z,84.17
2018-06-16T05:59:01.401Z,83.31
2018-06-16T06:00:09.464Z,83.69
2018-06-16T06:01:17.595Z,82.07
2018-06-16T06:02:25.587Z,82.45
2018-06-16T06:03:33.700Z,83.26
2018-06-16T06:04:41.717Z,81.54
2018-06-16T06:05:49.774Z,81.63
2018-06-16T06:06:57.836Z,81.15
2018-06-16T06:08:05.912Z,80.00
2018-06-16T06:09:13.979Z,80.77
2018-06-16T06:10:22.116Z,81.73
2018-06-16T06:11:30.138Z,82.11
2018-06-16T06:12:38.390Z,82.24
2018-06-16T06:13:46.476Z,82.63
2018-06-16T06:14:54.556Z,81.29
2018-06-16T06:16:02.584Z,82.15
2018-06-16T06:17:10.667Z,82.53
2018-06-16T06:18:18.740Z,81.96
2018-06-16T06:19:26.787Z,82.34
2018-06-16T06:20:34.850Z,82.82
2018-06-16T06:21:42.928Z,83.39
2018-06-16T06:22:50.991Z,84.06
2018-06-16T06:24:00.571Z,84.06
2018-06-16T06:25:07.121Z,84.35
2018-06-16T06:26:15.203Z,84.55
2018-06-16T06:27:23.257Z,84.16
2018-06-16T06:28:31.332Z,85.02
2018-06-16T06:29:39.661Z,84.64
2018-06-16T06:30:47.462Z,82.82
2018-06-16T06:31:55.538Z,84.16
2018-06-16T06:33:03.584Z,85.12
2018-06-16T06:34:11.671Z,82.63
2018-06-16T06:35:19.930Z,83.34
2018-06-16T06:36:27.990Z,80.56
2018-06-16T06:37:36.062Z,80.47
2018-06-16T06:38:44.336Z,80.47
2018-06-16T06:39:52.456Z,80.85
2018-06-16T06:41:00.483Z,81.62
2018-06-16T06:42:09.787Z,79.70
2018-06-16T06:43:17.832Z,79.89
2018-06-16T06:44:25.930Z,80.47
2018-06-16T06:45:34.008Z,80.85
2018-06-16T06:46:42.047Z,82.52
2018-06-16T06:47:50.118Z,82.23
2018-06-16T06:48:58.245Z,81.37
2018-06-16T06:50:06.247Z,79.74
2018-06-16T06:51:14.307Z,80.60
2018-06-16T06:52:22.595Z,79.74
2018-06-16T06:53:30.488Z,79.64
2018-06-16T06:54:38.530Z,77.92
2018-06-16T06:55:46.593Z,78.05
2018-06-16T06:56:57.273Z,77.95
2018-06-16T06:58:05.353Z,80.74
2018-06-16T06:59:14.028Z,80.16
2018-06-16T07:00:21.492Z,80.35
2018-06-16T07:01:29.558Z,81.12
2018-06-16T07:02:37.602Z,78.82
2018-06-16T07:03:47.803Z,80.40
2018-06-16T07:06:06.065Z,77.90
2018-06-16T07:07:14.132Z,74.64
2018-06-16T07:08:22.187Z,74.19
2018-06-16T07:09:30.313Z,72.85
2018-06-16T07:10:38.362Z,72.60
2018-06-16T07:11:46.402Z,75.67
2018-06-16T07:12:54.478Z,71.29
2018-06-16T07:14:02.800Z,70.37
2018-06-16T07:15:10.647Z,69.40
2018-06-16T07:16:18.690Z,67.68
2018-06-16T07:17:26.758Z,69.15
2018-06-16T07:18:34.826Z,68.67
2018-06-16T07:19:42.893Z,70.68
2018-06-16T07:20:50.964Z,71.08
2018-06-16T07:21:59.054Z,70.05
2018-06-16T07:23:07.331Z,69.67
2018-06-16T07:24:15.397Z,68.03
2018-06-16T07:25:27.279Z,66.78
2018-06-16T07:26:35.379Z,65.37
2018-06-16T07:27:43.456Z,67.00
2018-06-16T07:31:21.391Z,59.97
2018-06-16T07:32:30.039Z,59.42
2018-06-16T07:33:37.955Z,59.83
2018-06-16T07:34:45.630Z,58.68
2018-06-16T07:35:53.959Z,57.06
2018-06-16T07:37:01.770Z,53.42
2018-06-16T07:38:09.845Z,52.67
2018-06-16T07:39:17.899Z,55.15
2018-06-16T07:40:26.293Z,51.10
2018-06-16T07:41:34.097Z,50.55
2018-06-16T07:42:42.150Z,49.32
2018-06-16T07:43:54.781Z,46.43
2018-06-16T07:45:02.057Z,46.41
2018-06-16T07:46:10.639Z,47.26
2018-06-16T07:47:17.959Z,46.89
2018-06-16T07:48:25.984Z,46.33
2018-06-16T07:49:34.063Z,45.48
2018-06-16T07:50:42.136Z,44.37
2018-06-16T07:51:50.225Z,45.45
2018-06-16T07:52:58.292Z,45.57
2018-06-16T07:54:06.377Z,43.46
2018-06-16T07:55:14.477Z,43.77
2018-06-16T07:56:22.540Z,40.47
2018-06-16T07:57:30.624Z,40.88
2018-06-16T07:58:38.703Z,40.37
2018-06-16T07:59:46.779Z,39.49
2018-06-16T08:00:55.136Z,42.53
2018-06-16T08:02:02.950Z,41.75
2018-06-16T08:03:11.036Z,41.28
2018-06-16T08:04:19.109Z,43.05
2018-06-16T08:05:27.171Z,42.76
2018-06-16T08:06:35.288Z,36.25
2018-06-16T08:07:43.360Z,38.28
2018-06-16T08:08:51.457Z,36.43
2018-06-16T08:09:59.543Z,40.62
2018-06-16T08:11:07.573Z,40.81
2018-06-16T08:12:15.705Z,35.94
2018-06-16T08:13:23.795Z,38.73
2018-06-16T08:14:31.855Z,40.34
2018-06-16T08:15:39.956Z,43.15
2018-06-16T08:16:48.012Z,40.72
2018-06-16T08:17:56.148Z,43.44
2018-06-16T08:19:04.196Z,46.06
2018-06-16T08:20:12.288Z,43.46
2018-06-16T08:21:20.361Z,44.43
2018-06-16T08:22:28.458Z,37.06
2018-06-16T08:23:36.519Z,37.27
2018-06-16T08:24:44.611Z,41.55
2018-06-16T08:25:52.698Z,40.58
2018-06-16T08:27:00.783Z,35.93
2018-06-16T08:28:08.855Z,36.04
2018-06-16T08:29:16.943Z,37.41
2018-06-16T08:30:25.035Z,39.92
2018-06-16T08:31:33.109Z,37.97
2018-06-16T08:32:41.196Z,35.93
2018-06-16T08:33:49.283Z,38.67
2018-06-16T08:34:57.600Z,32.92
2018-06-16T08:36:05.473Z,38.79
2018-06-16T08:37:13.528Z,38.38
2018-06-16T08:38:21.612Z,39.36
2018-06-16T08:39:29.723Z,38.40
2018-06-16T08:40:37.792Z,40.25
2018-06-16T08:41:45.897Z,41.61
2018-06-16T08:42:53.965Z,40.06
2018-06-16T08:44:02.071Z,38.89
2018-06-16T08:45:10.132Z,37.71
2018-06-16T08:46:18.344Z,38.98
2018-06-16T08:47:26.304Z,39.59
2018-06-16T08:48:35.393Z,41.05
2018-06-16T08:49:42.483Z,36.27
2018-06-16T08:50:50.556Z,33.56
2018-06-16T08:51:58.643Z,38.43
2018-06-16T08:53:06.730Z,40.86
2018-06-16T08:54:14.816Z,34.22
2018-06-16T08:55:23.035Z,40.56
2018-06-16T08:56:31.030Z,39.78
2018-06-16T08:57:39.071Z,37.91
2018-06-16T08:58:47.138Z,40.13
2018-06-16T08:59:55.246Z,42.45
2018-06-16T09:01:03.335Z,39.80
2018-06-16T09:02:11.622Z,34.16
2018-06-16T09:03:19.707Z,37.66
2018-06-16T09:04:27.768Z,35.33
2018-06-16T09:05:35.994Z,33.96
2018-06-16T09:06:43.970Z,34.45
2018-06-16T09:07:52.053Z,40.39
2018-06-16T09:09:00.156Z,38.54
2018-06-16T09:10:08.214Z,36.10
2018-06-16T09:11:16.310Z,37.18
2018-06-16T09:12:24.388Z,35.50
2018-06-16T09:13:32.476Z,35.91
2018-06-16T09:14:40.564Z,37.95
2018-06-16T09:15:48.642Z,38.56
2018-06-16T09:16:56.747Z,41.09
2018-06-16T09:18:04.800Z,38.75
2018-06-16T09:19:12.904Z,42.16
2018-06-16T09:20:20.998Z,39.43
2018-06-16T09:21:29.077Z,33.02
2018-06-16T09:22:37.176Z,33.18
2018-06-16T09:23:45.252Z,36.26
2018-06-16T09:24:53.366Z,43.34
2018-06-16T09:26:01.496Z,40.01
2018-06-16T09:27:09.494Z,42.05
2018-06-16T09:28:17.577Z,45.04
2018-06-16T09:29:25.667Z,42.03
2018-06-16T09:30:33.991Z,47.96
2018-06-16T09:31:41.831Z,39.80
2018-06-16T09:32:49.908Z,44.03
2018-06-16T09:33:57.985Z,42.65
2018-06-16T09:35:06.085Z,43.13
2018-06-16T09:36:14.179Z,43.23
2018-06-16T09:37:22.235Z,44.27
2018-06-16T09:38:30.296Z,47.26
2018-06-16T09:39:38.455Z,45.71
2018-06-16T09:40:46.479Z,45.30
2018-06-16T09:41:54.542Z,48.49
2018-06-16T09:43:02.639Z,47.43
2018-06-16T09:44:10.744Z,47.81
2018-06-16T09:45:18.787Z,45.59
2018-06-16T09:46:26.900Z,47.43
2018-06-16T09:47:35.146Z,47.21
2018-06-16T09:48:43.224Z,47.31
2018-06-16T09:49:51.299Z,45.66
2018-06-16T09:50:59.387Z,42.96
2018-06-16T09:52:07.429Z,50.48
2018-06-16T09:53:15.522Z,49.22
2018-06-16T09:54:23.593Z,47.84
2018-06-16T09:55:31.715Z,48.13
2018-06-16T09:56:39.749Z,51.90
2018-06-16T09:57:47.808Z,47.09
2018-06-16T09:58:55.899Z,50.76
2018-06-16T10:00:03.981Z,47.36
2018-06-16T10:01:12.054Z,52.19
2018-06-16T10:02:20.141Z,54.22
2018-06-16T10:03:28.213Z,53.38
2018-06-16T10:04:36.276Z,54.63
2018-06-16T10:05:44.362Z,55.51
2018-06-16T10:06:52.430Z,50.96
2018-06-16T10:08:00.708Z,53.38
2018-06-16T10:09:08.798Z,49.80
2018-06-16T10:10:16.862Z,52.22
2018-06-16T10:11:24.929Z,49.51
2018-06-16T10:12:33.007Z,47.28
2018-06-16T10:13:41.071Z,46.51
2018-06-16T10:14:49.152Z,45.81
2018-06-16T10:15:57.265Z,47.16
2018-06-16T10:17:05.304Z,49.00
2018-06-16T10:18:13.386Z,51.51
2018-06-16T10:19:21.465Z,45.50
2018-06-16T10:20:29.546Z,48.61
2018-06-16T10:21:37.581Z,52.36
2018-06-16T10:22:45.678Z,51.68
2018-06-16T10:23:53.756Z,50.13
2018-06-16T10:25:01.832Z,53.33
2018-06-16T10:26:10.096Z,46.30
2018-06-16T10:27:18.174Z,49.77
2018-06-16T10:28:26.241Z,52.29
2018-06-16T10:29:34.521Z,53.35
2018-06-16T10:30:42.592Z,52.39
2018-06-16T10:31:50.669Z,50.48
2018-06-16T10:32:58.747Z,53.47
2018-06-16T10:34:06.863Z,52.41
2018-06-16T10:35:14.896Z,49.90
2018-06-16T10:36:23.025Z,48.93
2018-06-16T10:37:31.045Z,52.12
2018-06-16T10:38:39.104Z,56.95
2018-06-16T10:39:47.205Z,54.35
2018-06-16T10:40:55.263Z,54.25
2018-06-16T10:42:03.342Z,49.12
2018-06-16T10:43:11.402Z,49.32
2018-06-16T10:44:19.506Z,45.35
2018-06-16T10:45:27.529Z,49.22
2018-06-16T10:46:35.662Z,48.35
2018-06-16T10:47:43.740Z,55.21
2018-06-16T10:48:51.761Z,53.28
2018-06-16T10:50:00.189Z,54.83
2018-06-16T10:51:08.248Z,54.05
2018-06-16T10:52:16.080Z,48.93
2018-06-16T10:53:24.065Z,53.47
2018-06-16T10:54:32.128Z,46.22
2018-06-16T10:55:41.268Z,45.23
2018-06-16T10:56:48.636Z,49.87
2018-06-16T10:57:56.366Z,52.29
2018-06-16T10:59:04.437Z,52.80
2018-06-16T11:00:12.522Z,53.38
2018-06-16T11:01:20.575Z,53.09
2018-06-16T11:02:28.664Z,53.47
2018-06-16T11:03:36.720Z,52.44
2018-06-16T11:04:44.797Z,53.31
2018-06-16T11:05:52.878Z,47.48
2018-06-16T11:07:00.953Z,54.73
2018-06-16T11:08:09.027Z,55.70
2018-06-16T11:09:17.355Z,53.99
2018-06-16T11:10:25.430Z,54.75
2018-06-16T11:11:33.262Z,54.37
2018-06-16T11:12:41.717Z,51.37
2018-06-16T11:13:50.149Z,52.63
2018-06-16T11:14:57.830Z,55.92
2018-06-16T11:16:05.937Z,52.44
2018-06-16T11:17:14.000Z,54.59
2018-06-16T11:18:22.088Z,54.21
2018-06-16T11:19:30.197Z,50.62
2018-06-16T11:20:38.228Z,47.11
2018-06-16T11:21:46.299Z,45.37
2018-06-16T11:22:54.379Z,50.60
2018-06-16T11:24:02.440Z,45.76
2018-06-16T11:25:10.508Z,45.76
2018-06-16T11:26:18.582Z,48.37
2018-06-16T11:27:26.672Z,52.89
2018-06-16T11:28:35.027Z,49.24
2018-06-16T11:29:42.824Z,50.79
2018-06-16T11:30:50.894Z,48.47
2018-06-16T11:31:58.956Z,51.18
2018-06-16T11:33:07.029Z,48.47
2018-06-16T11:34:15.104Z,47.41
2018-06-16T11:35:23.186Z,47.43
2018-06-16T11:36:31.250Z,47.41
2018-06-16T11:37:39.325Z,49.92
2018-06-16T11:38:47.370Z,49.73
2018-06-16T11:39:55.484Z,48.66
2018-06-16T11:41:03.556Z,49.24
2018-06-16T11:42:11.633Z,50.21
2018-06-16T11:43:19.891Z,53.41
2018-06-16T11:44:28.242Z,49.24
2018-06-16T11:45:36.049Z,52.53
2018-06-16T11:46:44.133Z,47.24
2018-06-16T11:47:52.188Z,47.41
2018-06-16T11:49:00.312Z,45.08
2018-06-16T11:50:08.352Z,51.44
2018-06-16T11:51:16.408Z,53.47
2018-06-16T11:52:24.493Z,46.90
2018-06-16T11:53:32.553Z,48.93
2018-06-16T11:54:40.648Z,48.93
2018-06-16T11:55:48.731Z,54.25
2018-06-16T11:56:56.785Z,50.21
2018-06-16T11:58:04.849Z,51.56
2018-06-16T11:59:12.930Z,55.63
2018-06-16T12:00:20.993Z,55.53
2018-06-16T12:01:29.094Z,50.89
2018-06-16T12:02:37.371Z,49.34
2018-06-16T12:03:45.224Z,52.44
2018-06-16T12:04:53.288Z,50.89
2018-06-16T12:06:01.383Z,44.31
2018-06-16T12:07:09.429Z,49.92
2018-06-16T12:08:17.546Z,49.44
2018-06-16T12:09:25.584Z,47.41
2018-06-16T12:10:33.648Z,50.12
2018-06-16T12:11:41.739Z,49.24
2018-06-16T12:12:49.896Z,48.18
2018-06-16T12:13:57.878Z,46.25
2018-06-16T12:15:05.946Z,47.79
2018-06-16T12:16:14.259Z,43.34
2018-06-16T12:17:22.084Z,50.12
2018-06-16T12:18:30.164Z,45.95
2018-06-16T12:19:38.239Z,52.14
2018-06-16T12:20:46.296Z,48.37
2018-06-16T12:21:54.375Z,45.37
2018-06-16T12:23:02.450Z,46.83
2018-06-16T12:24:10.529Z,48.57
2018-06-16T12:25:18.585Z,48.86
2018-06-16T12:26:26.674Z,49.05
2018-06-16T12:27:34.727Z,48.76
2018-06-16T12:28:42.848Z,47.60
2018-06-16T12:29:50.894Z,48.95
2018-06-16T12:30:58.987Z,51.66
2018-06-16T12:32:07.011Z,50.79
2018-06-16T12:33:15.107Z,50.89
2018-06-16T12:34:23.184Z,48.47
2018-06-16T12:35:31.291Z,47.50
2018-06-16T12:36:39.315Z,49.44
2018-06-16T12:37:47.379Z,42.47
2018-06-16T12:38:55.469Z,46.25
2018-06-16T12:40:03.757Z,42.57
2018-06-16T12:41:11.821Z,50.12
2018-06-16T12:42:19.902Z,48.18
2018-06-16T12:43:27.953Z,49.73
2018-06-16T12:44:36.034Z,48.27
2018-06-16T12:45:44.115Z,49.05
2018-06-16T12:46:52.180Z,49.05
2018-06-16T12:48:00.237Z,48.35
2018-06-16T12:49:08.319Z,43.54
2018-06-16T12:50:16.395Z,45.66
2018-06-16T12:51:24.484Z,48.27
2018-06-16T12:52:32.544Z,47.89
2018-06-16T12:53:40.615Z,47.11
2018-06-16T12:54:48.690Z,45.95
2018-06-16T12:55:56.763Z,48.18
2018-06-16T12:57:04.988Z,47.21
2018-06-16T12:58:12.903Z,46.92
2018-06-16T12:59:20.976Z,44.21
2018-06-16T13:00:29.057Z,49.82
2018-06-16T13:01:37.122Z,48.86
2018-06-16T13:02:45.204Z,49.44
2018-06-16T13:03:53.284Z,50.24
2018-06-16T13:05:01.382Z,50.21
2018-06-16T13:06:09.410Z,42.66
2018-06-16T13:07:17.484Z,44.12
2018-06-16T13:08:25.573Z,48.57
2018-06-16T13:09:33.641Z,43.54
2018-06-16T13:10:41.701Z,44.12
2018-06-16T13:11:49.782Z,43.07
2018-06-16T13:12:57.854Z,43.63
2018-06-16T13:14:05.991Z,40.44
2018-06-16T13:15:14.007Z,38.79
2018-06-16T13:16:22.082Z,43.46
2018-06-16T13:17:30.152Z,44.04
2018-06-16T13:18:38.220Z,45.40
2018-06-16T13:19:46.304Z,49.07
2018-06-16T13:20:54.418Z,45.57
2018-06-16T13:22:02.790Z,46.73
2018-06-16T13:23:10.525Z,43.65
2018-06-16T13:24:18.584Z,45.59
2018-06-16T13:25:26.670Z,42.47
2018-06-16T13:26:34.729Z,46.84
2018-06-16T13:27:42.806Z,43.37
2018-06-16T13:28:50.884Z,47.72
2018-06-16T13:29:58.981Z,39.49
2018-06-16T13:31:07.017Z,42.20
2018-06-16T13:32:15.095Z,41.91
2018-06-16T13:33:23.187Z,44.02
2018-06-16T13:34:31.285Z,40.73
2018-06-16T13:35:39.324Z,40.75
2018-06-16T13:36:47.377Z,44.62
2018-06-16T13:37:55.454Z,42.10
2018-06-16T13:39:03.747Z,41.24
2018-06-16T13:40:11.812Z,41.42
2018-06-16T13:41:19.937Z,44.72
2018-06-16T13:42:27.944Z,44.81
2018-06-16T13:43:36.032Z,44.81
2018-06-16T13:44:44.104Z,46.17
2018-06-16T13:45:52.192Z,46.19
2018-06-16T13:47:00.286Z,47.94
2018-06-16T13:48:08.320Z,44.16
2018-06-16T13:49:16.403Z,50.45
2018-06-16T13:50:24.503Z,45.22
2018-06-16T13:51:32.560Z,47.06
2018-06-16T13:52:40.629Z,44.16
2018-06-16T13:53:48.703Z,42.22
2018-06-16T13:54:57.013Z,41.56
2018-06-16T13:56:04.835Z,48.74
2018-06-16T13:57:12.916Z,43.99
2018-06-16T13:58:20.997Z,45.05
2018-06-16T13:59:29.062Z,43.29
2018-06-16T14:00:37.167Z,44.35
2018-06-16T14:01:45.409Z,45.81
2018-06-16T14:02:53.491Z,48.32
2018-06-16T14:04:01.563Z,45.90
2018-06-16T14:05:09.626Z,43.29
2018-06-16T14:06:17.684Z,46.56
2018-06-16T14:07:25.785Z,45.40
2018-06-16T14:08:33.855Z,42.59
2018-06-16T14:09:41.935Z,48.11
2018-06-16T14:10:50.011Z,43.55
2018-06-16T14:11:58.075Z,41.42
2018-06-16T14:13:06.272Z,40.46
2018-06-16T14:14:14.221Z,41.62
2018-06-16T14:15:22.305Z,44.13
2018-06-16T14:16:30.373Z,45.40
2018-06-16T14:17:38.484Z,46.26
2018-06-16T14:18:46.519Z,48.88
2018-06-16T14:19:54.590Z,48.13
2018-06-16T14:21:02.674Z,47.45
2018-06-16T14:22:11.283Z,46.87
2018-06-16T14:23:19.058Z,45.03
2018-06-16T14:24:27.071Z,45.51
2018-06-16T14:25:35.172Z,43.96
2018-06-16T14:26:43.227Z,47.38
2018-06-16T14:27:51.311Z,46.99
2018-06-16T14:28:59.382Z,41.66
2018-06-16T14:30:07.437Z,43.79
2018-06-16T14:31:15.553Z,47.28
2018-06-16T14:32:23.610Z,44.67
2018-06-16T14:33:31.686Z,45.44
2018-06-16T14:34:39.757Z,45.54
2018-06-16T14:35:47.837Z,45.15
2018-06-16T14:36:55.906Z,44.96
2018-06-16T14:38:04.230Z,41.95
2018-06-16T14:39:12.095Z,41.37
2018-06-16T14:40:20.203Z,41.56
2018-06-16T14:41:28.204Z,40.86
2018-06-16T14:42:36.284Z,40.19
2018-06-16T14:43:44.345Z,41.83
2018-06-16T14:44:52.421Z,46.29
2018-06-16T14:46:00.503Z,49.49
2018-06-16T14:47:08.576Z,48.83
2018-06-16T14:48:16.644Z,47.06
2018-06-16T14:49:24.717Z,48.93
2018-06-16T14:50:32.885Z,47.47
2018-06-16T14:51:40.853Z,43.70
2018-06-16T14:52:48.942Z,43.50